createdAt,value
2022-10-05T00:00:59.356Z,37.24
2022-10-05T00:03:34.775Z,35.88
2022-10-05T00:06:02.951Z,37.01
2022-10-05T00:08:37.840Z,37.31
2022-10-05T00:11:10.552Z,37.74
2022-10-05T00:13:39.154Z,37.21
2022-10-05T00:16:13.320Z,38.12
2022-10-05T00:18:42.302Z,38.69
2022-10-05T00:21:24.319Z,39.18
2022-10-05T00:23:54.166Z,39.58
2022-10-05T00:26:25.336Z,38.30
2022-10-05T00:28:56.018Z,38.95
2022-10-05T00:31:27.899Z,39.59
2022-10-05T00:33:57.604Z,39.85
2022-10-05T00:36:27.154Z,40.75
2022-10-05T00:38:56.944Z,41.51
2022-10-05T00:41:56.813Z,42.58
2022-10-05T00:44:50.926Z,42.09
2022-10-05T00:47:58.714Z,44.43
2022-10-05T00:50:32.546Z,45.28
2022-10-05T00:53:06.619Z,48.21
2022-10-05T00:55:43.837Z,48.85
2022-10-05T00:58:17.684Z,48.75
2022-10-05T01:01:12.740Z,51.22
2022-10-05T01:04:00.390Z,49.35
2022-10-05T01:06:58.499Z,51.09
2022-10-05T01:10:02.360Z,51.54
2022-10-05T01:12:33.970Z,51.90
2022-10-05T01:15:14.571Z,53.38
2022-10-05T01:18:02.102Z,52.03
2022-10-05T01:20:42.385Z,53.10
2022-10-05T01:23:35.779Z,52.00
2022-10-05T01:26:23.199Z,51.34
2022-10-05T01:29:17.819Z,53.71
2022-10-05T01:32:04.249Z,52.88
2022-10-05T01:34:56.123Z,52.87
2022-10-05T01:37:47.450Z,53.80
2022-10-05T01:40:40.667Z,53.16
2022-10-05T01:43:23.421Z,53.43
2022-10-05T01:46:12.047Z,52.67
2022-10-05T01:48:48.488Z,52.68
2022-10-05T01:51:45.949Z,53.43
2022-10-05T01:54:44.137Z,52.79
2022-10-05T01:57:19.519Z,51.76
2022-10-05T02:00:19.291Z,52.64
2022-10-05T02:03:01.307Z,52.46
2022-10-05T02:05:55.069Z,54.25
2022-10-05T02:08:40.205Z,56.63
2022-10-05T02:11:14.395Z,56.51
2022-10-05T02:14:23.119Z,54.30
2022-10-05T02:16:55.517Z,53.91
2022-10-05T02:19:43.255Z,53.84
2022-10-05T02:22:23.399Z,54.79
2022-10-05T02:25:06.939Z,54.15
2022-10-05T02:27:42.121Z,55.39
2022-10-05T02:30:16.251Z,52.46
2022-10-05T02:32:55.703Z,54.46
2022-10-05T02:35:24.759Z,51.12
2022-10-05T02:38:14.555Z,53.20
2022-10-05T02:41:00.494Z,53.37
2022-10-05T02:44:00.791Z,53.70
2022-10-05T02:46:56.144Z,50.63
2022-10-05T02:49:34.418Z,51.47
2022-10-05T02:52:08.350Z,49.26
2022-10-05T02:54:48.768Z,48.88
2022-10-05T02:57:32.884Z,48.54
2022-10-05T03:00:21.613Z,49.04
2022-10-05T03:02:56.389Z,49.21
2022-10-05T03:05:35.657Z,49.07
2022-10-05T03:08:11.315Z,49.43
2022-10-05T03:10:51.450Z,49.44
2022-10-05T03:13:38.498Z,49.73
2022-10-05T03:16:37.682Z,49.48
2022-10-05T03:19:47.182Z,50.29
2022-10-05T03:22:15.676Z,51.11
2022-10-05T03:25:11.522Z,50.84
2022-10-05T03:27:49.757Z,50.64
2022-10-05T03:30:24.750Z,50.75
2022-10-05T03:33:08.138Z,50.45
2022-10-05T03:35:46.464Z,50.78
2022-10-05T03:38:32.285Z,52.47
2022-10-05T03:41:12.409Z,51.37
2022-10-05T03:44:04.118Z,51.60
2022-10-05T03:47:03.388Z,51.55
2022-10-05T03:49:48.623Z,51.74
2022-10-05T03:52:26.321Z,52.19
2022-10-05T03:55:04.859Z,51.99
2022-10-05T03:57:40.270Z,53.36
2022-10-05T04:00:21.945Z,53.02
2022-10-05T04:03:00.446Z,52.99
2022-10-05T04:05:55.457Z,56.84
2022-10-05T04:08:48.073Z,57.65
2022-10-05T04:11:27.970Z,55.90
2022-10-05T04:14:33.707Z,56.87
2022-10-05T04:17:15.513Z,53.32
2022-10-05T04:19:56.383Z,52.91
2022-10-05T04:22:31.731Z,52.93
2022-10-05T04:25:18.367Z,53.19
2022-10-05T04:27:56.618Z,53.03
2022-10-05T04:30:25.161Z,53.54
2022-10-05T04:32:58.874Z,55.02
2022-10-05T04:36:11.744Z,56.45
2022-10-05T04:39:09.624Z,54.26
2022-10-05T04:41:56.695Z,54.53
2022-10-05T04:45:02.876Z,55.15
2022-10-05T04:47:58.780Z,54.55
2022-10-05T04:50:27.254Z,56.90
2022-10-05T04:53:24.813Z,55.16
2022-10-05T04:56:42.057Z,54.57
2022-10-05T04:59:22.367Z,54.38
2022-10-05T05:02:18.168Z,54.28
2022-10-05T05:05:08.694Z,54.49
2022-10-05T05:08:13.810Z,55.20
2022-10-05T05:11:17.419Z,55.34
2022-10-05T05:13:47.578Z,56.69
2022-10-05T05:16:22.103Z,58.31
2022-10-05T05:19:04.912Z,56.75
2022-10-05T05:21:53.039Z,56.26
2022-10-05T05:24:26.555Z,58.95
2022-10-05T05:27:31.358Z,60.87
2022-10-05T05:30:10.138Z,61.77
2022-10-05T05:32:51.866Z,63.80
2022-10-05T05:35:57.225Z,63.62
2022-10-05T05:38:40.894Z,63.60
2022-10-05T05:41:13.428Z,65.08
2022-10-05T05:44:09.885Z,64.64
2022-10-05T05:47:04.944Z,64.93
2022-10-05T05:49:43.646Z,65.24
2022-10-05T05:52:30.561Z,66.49
2022-10-05T05:55:05.878Z,66.38
2022-10-05T05:57:44.854Z,65.71
2022-10-05T06:00:16.574Z,67.14
2022-10-05T06:02:56.084Z,66.42
2022-10-05T06:05:43.031Z,67.59
2022-10-05T06:08:28.795Z,66.99
2022-10-05T06:11:02.938Z,68.45
2022-10-05T06:13:43.582Z,67.76
2022-10-05T06:16:16.502Z,68.24
2022-10-05T06:18:49.366Z,69.20
2022-10-05T06:21:41.084Z,68.94
2022-10-05T06:25:06.206Z,68.21
2022-10-05T06:27:39.237Z,69.52
2022-10-05T06:30:26.507Z,70.51
2022-10-05T06:33:03.605Z,69.97
2022-10-05T06:35:38.283Z,69.82
2022-10-05T06:38:40.250Z,69.28
2022-10-05T06:41:39.286Z,70.41
2022-10-05T06:44:34.931Z,70.69
2022-10-05T06:47:29.018Z,71.85
2022-10-05T06:50:27.641Z,72.97
2022-10-05T06:53:23.606Z,71.57
2022-10-05T06:56:21.546Z,72.25
2022-10-05T06:59:08.731Z,71.96
2022-10-05T07:01:50.489Z,72.39
2022-10-05T07:04:40.222Z,71.96
2022-10-05T07:07:40.315Z,73.89
2022-10-05T07:10:23.705Z,72.72
2022-10-05T07:13:50.488Z,70.91
2022-10-05T07:16:38.252Z,70.21
2022-10-05T07:19:12.257Z,70.62
2022-10-05T07:22:01.591Z,69.09
2022-10-05T07:25:03.096Z,68.27
2022-10-05T07:27:36.603Z,66.92
2022-10-05T07:30:05.821Z,66.20
2022-10-05T07:32:36.479Z,65.50
2022-10-05T07:35:48.187Z,65.41
2022-10-05T07:38:32.320Z,65.02
2022-10-05T07:41:37.145Z,64.32
2022-10-05T07:44:14.330Z,63.75
2022-10-05T07:46:53.781Z,63.37
2022-10-05T07:49:38.337Z,63.10
2022-10-05T07:52:18.497Z,62.72
2022-10-05T07:55:19.199Z,61.64
2022-10-05T07:57:50.380Z,60.66
2022-10-05T08:00:25.162Z,59.72
2022-10-05T08:03:08.784Z,58.89
2022-10-05T08:05:43.195Z,58.24
2022-10-05T08:08:31.091Z,57.42
2022-10-05T08:11:40.073Z,56.36
2022-10-05T08:14:36.217Z,55.58
2022-10-05T08:17:27.711Z,55.36
2022-10-05T08:20:34.601Z,54.96
2022-10-05T08:23:27.238Z,55.48
2022-10-05T08:26:04.136Z,55.04
2022-10-05T08:28:38.178Z,55.29
2022-10-05T08:31:15.174Z,55.37
2022-10-05T08:34:22.342Z,55.35
2022-10-05T08:36:56.965Z,55.44
2022-10-05T08:39:29.750Z,55.63
2022-10-05T08:42:22.146Z,55.72
2022-10-05T08:45:06.511Z,56.11
2022-10-05T08:48:04.345Z,56.09
2022-10-05T08:51:07.008Z,56.50
2022-10-05T08:54:07.146Z,56.89
2022-10-05T08:56:44.408Z,57.04
2022-10-05T08:59:22.253Z,57.05
2022-10-05T09:02:34.905Z,57.49
2022-10-05T09:05:30.718Z,57.51
2022-10-05T09:08:49.015Z,58.32
2022-10-05T09:11:47.688Z,58.45
2022-10-05T09:14:22.131Z,58.27
2022-10-05T09:17:08.788Z,58.75
2022-10-05T09:20:11.798Z,58.73
2022-10-05T09:23:00.276Z,58.88
2022-10-05T09:25:48.855Z,58.77
2022-10-05T09:28:24.742Z,58.89
2022-10-05T09:31:28.398Z,59.02
2022-10-05T09:34:21.271Z,59.41
2022-10-05T09:36:49.788Z,59.19
2022-10-05T09:39:31.756Z,59.93
2022-10-05T09:42:37.043Z,59.75
2022-10-05T09:45:36.982Z,59.93
2022-10-05T09:48:11.565Z,60.56
2022-10-05T09:50:42.077Z,60.89
2022-10-05T09:53:41.267Z,60.52
2022-10-05T09:56:22.434Z,60.42
2022-10-05T09:59:11.530Z,60.60
2022-10-05T10:02:23.603Z,60.45
2022-10-05T10:05:24.468Z,61.37
2022-10-05T10:08:01.541Z,61.01
2022-10-05T10:10:58.841Z,61.65
2022-10-05T10:14:04.285Z,61.34
2022-10-05T10:16:41.545Z,62.31
2022-10-05T10:19:21.731Z,61.68
2022-10-05T10:21:56.670Z,62.09
2022-10-05T10:25:07.855Z,62.06
2022-10-05T10:27:56.087Z,63.00
2022-10-05T10:30:27.737Z,63.13
2022-10-05T10:33:06.803Z,63.27
2022-10-05T10:35:41.351Z,63.32
2022-10-05T10:38:34.491Z,63.84
2022-10-05T10:41:14.587Z,63.54
2022-10-05T10:44:03.709Z,63.95
2022-10-05T10:46:47.812Z,63.60
2022-10-05T10:49:48.535Z,63.70
2022-10-05T10:52:59.924Z,64.41
2022-10-05T10:55:52.463Z,63.65
2022-10-05T10:58:54.500Z,63.74
2022-10-05T11:02:11.925Z,63.74
2022-10-05T11:04:58.686Z,63.87
2022-10-05T11:07:59.518Z,63.90
2022-10-05T11:10:42.722Z,63.62
2022-10-05T11:13:41.347Z,63.61
2022-10-05T11:16:18.724Z,63.77
2022-10-05T11:19:00.100Z,64.07
2022-10-05T11:21:53.276Z,64.20
2022-10-05T11:24:52.702Z,64.77
2022-10-05T11:27:48.608Z,64.99
2022-10-05T11:30:38.454Z,64.63
2022-10-05T11:33:13.207Z,64.96
2022-10-05T11:36:27.028Z,65.32
2022-10-05T11:39:38.340Z,65.61
2022-10-05T11:42:25.632Z,65.92
2022-10-05T11:45:15.707Z,65.84
2022-10-05T11:48:14.748Z,66.11
2022-10-05T11:51:05.659Z,66.64
2022-10-05T11:53:53.916Z,66.62
2022-10-05T11:56:26.120Z,66.77
2022-10-05T11:59:14.513Z,66.36
2022-10-05T12:02:15.457Z,66.64
2022-10-05T12:05:12.158Z,66.56
2022-10-05T12:07:43.678Z,66.42
2022-10-05T12:10:40.998Z,66.59
2022-10-05T12:13:52.497Z,66.83
2022-10-05T12:16:38.910Z,66.85
2022-10-05T12:19:31.008Z,67.07
2022-10-05T12:22:22.794Z,66.93
2022-10-05T12:24:57.178Z,66.68
2022-10-05T12:27:29.856Z,66.88
2022-10-05T12:30:08.456Z,67.13
2022-10-05T12:33:03.615Z,67.01
2022-10-05T12:35:47.411Z,67.23
2022-10-05T12:38:22.094Z,67.33
2022-10-05T12:41:00.619Z,66.85
2022-10-05T12:43:56.215Z,67.15
2022-10-05T12:46:48.878Z,67.27
2022-10-05T12:49:48.256Z,67.22
2022-10-05T12:52:27.560Z,67.67
2022-10-05T12:55:11.936Z,67.44
2022-10-05T12:57:50.178Z,67.31
2022-10-05T13:00:23.179Z,67.24
2022-10-05T13:03:10.094Z,67.18
2022-10-05T13:06:02.607Z,67.13
2022-10-05T13:08:40.966Z,67.56
2022-10-05T13:11:27.703Z,67.49
2022-10-05T13:14:20.831Z,67.52
2022-10-05T13:17:15.614Z,67.71
2022-10-05T13:19:54.112Z,67.68
2022-10-05T13:22:41.979Z,67.90
2022-10-05T13:25:31.293Z,67.89
2022-10-05T13:28:05.535Z,67.92
2022-10-05T13:30:34.525Z,68.54
2022-10-05T13:33:21.439Z,67.85
2022-10-05T13:36:25.186Z,68.31
2022-10-05T13:38:58.768Z,68.35
2022-10-05T13:42:07.176Z,68.50
2022-10-05T13:44:51.527Z,68.79
2022-10-05T13:47:24.780Z,69.09
2022-10-05T13:50:04.120Z,69.33
2022-10-05T13:52:47.474Z,69.48
2022-10-05T13:55:33.746Z,69.45
2022-10-05T13:58:27.136Z,69.48
2022-10-05T14:00:56.444Z,69.29
2022-10-05T14:04:05.106Z,69.23
2022-10-05T14:06:37.182Z,69.30
2022-10-05T14:09:06.002Z,69.57
2022-10-05T14:11:48.726Z,69.34
2022-10-05T14:14:30.207Z,69.86
2022-10-05T14:19:46.529Z,69.91
2022-10-05T14:22:17.885Z,69.53
2022-10-05T14:25:18.428Z,69.50
2022-10-05T14:28:01.639Z,69.50
2022-10-05T14:30:32.213Z,69.32
2022-10-05T14:33:06.401Z,69.61
2022-10-05T14:35:51.729Z,69.86
2022-10-05T14:38:33.431Z,69.58
2022-10-05T14:41:07.607Z,70.26
2022-10-05T14:43:36.674Z,70.43
2022-10-05T14:46:24.983Z,70.44
2022-10-05T14:49:22.723Z,70.59
2022-10-05T14:51:52.903Z,70.84
2022-10-05T14:54:55.057Z,70.94
2022-10-05T14:57:33.437Z,70.70
2022-10-05T15:00:17.664Z,71.52
2022-10-05T15:02:49.061Z,71.30
2022-10-05T15:05:40.673Z,71.68
2022-10-05T15:08:37.374Z,71.97
2022-10-05T15:11:18.520Z,72.17
2022-10-05T15:13:51.339Z,72.00
2022-10-05T15:16:26.002Z,72.24
2022-10-05T15:19:26.799Z,72.93
2022-10-05T15:22:16.550Z,73.42
2022-10-05T15:24:50.204Z,73.33
2022-10-05T15:27:55.337Z,73.70
2022-10-05T15:30:24.552Z,73.86
2022-10-05T15:33:06.684Z,73.95
2022-10-05T15:35:38.587Z,73.98
2022-10-05T15:38:21.857Z,74.38
2022-10-05T15:40:56.022Z,74.64
2022-10-05T15:43:25.322Z,75.37
2022-10-05T15:46:06.977Z,75.85
2022-10-05T15:48:54.653Z,75.97
2022-10-05T15:51:36.831Z,75.97
2022-10-05T15:54:44.726Z,75.65
2022-10-05T15:57:20.365Z,75.73
2022-10-05T15:59:55.277Z,76.18
2022-10-05T16:02:47.019Z,76.39
2022-10-05T16:06:09.114Z,76.57
2022-10-05T16:09:14.543Z,76.59
2022-10-05T16:12:06.442Z,77.24
2022-10-05T16:14:41.886Z,77.79
2022-10-05T16:17:28.135Z,77.82
2022-10-05T16:20:52.894Z,78.63
2022-10-05T16:23:41.180Z,81.64
2022-10-05T16:26:21.718Z,83.31
2022-10-05T16:29:14.646Z,84.59
2022-10-05T16:32:32.375Z,85.29
2022-10-05T16:35:15.837Z,83.89
2022-10-05T16:38:16.664Z,83.13
2022-10-05T16:41:25.326Z,82.97
2022-10-05T16:43:53.778Z,83.35
2022-10-05T16:46:52.389Z,83.22
2022-10-05T16:49:21.836Z,83.39
2022-10-05T16:52:01.922Z,83.18
2022-10-05T16:54:30.326Z,82.46
2022-10-05T16:57:13.497Z,82.59
2022-10-05T17:00:06.125Z,82.66
2022-10-05T17:02:37.728Z,82.89
2022-10-05T17:05:21.381Z,81.94
2022-10-05T17:07:56.482Z,81.80
2022-10-05T17:10:24.997Z,82.07
2022-10-05T17:13:18.454Z,81.59
2022-10-05T17:16:13.451Z,81.85
2022-10-05T17:19:03.442Z,81.24
2022-10-05T17:22:10.216Z,81.72
2022-10-05T17:25:23.414Z,81.14
2022-10-05T17:28:16.255Z,81.20
2022-10-05T17:31:22.596Z,80.87
2022-10-05T17:34:19.280Z,80.11
2022-10-05T17:37:39.723Z,79.34
2022-10-05T17:40:46.974Z,79.08
2022-10-05T17:43:18.364Z,78.38
2022-10-05T17:45:47.242Z,77.64
2022-10-05T17:48:44.651Z,77.07
2022-10-05T17:51:36.032Z,75.99
2022-10-05T17:54:48.197Z,74.72
2022-10-05T17:57:28.449Z,75.27
2022-10-05T17:59:58.052Z,74.67
2022-10-05T18:02:32.683Z,75.48
2022-10-05T18:05:13.475Z,75.52
2022-10-05T18:07:50.010Z,75.58
2022-10-05T18:10:30.844Z,76.22
2022-10-05T18:13:02.404Z,76.23
2022-10-05T18:15:31.833Z,76.27
2022-10-05T18:18:33.554Z,75.86
2022-10-05T18:21:16.679Z,76.25
2022-10-05T18:23:59.843Z,75.28
2022-10-05T18:27:00.908Z,75.58
2022-10-05T18:29:52.910Z,75.41
2022-10-05T18:32:39.960Z,75.46
2022-10-05T18:35:21.679Z,75.78
2022-10-05T18:38:00.510Z,75.41
2022-10-05T18:40:54.812Z,75.00
2022-10-05T18:43:33.033Z,75.02
2022-10-05T18:46:10.590Z,74.68
2022-10-05T18:49:17.367Z,74.41
2022-10-05T18:52:02.044Z,74.23
2022-10-05T18:54:33.255Z,74.21
2022-10-05T18:57:29.087Z,74.77
2022-10-05T19:00:14.882Z,73.86
2022-10-05T19:03:09.569Z,74.64
2022-10-05T19:05:48.815Z,74.90
2022-10-05T19:08:35.603Z,74.02
2022-10-05T19:11:34.590Z,74.00
2022-10-05T19:14:19.637Z,73.98
2022-10-05T19:17:14.289Z,74.08
2022-10-05T19:20:18.216Z,74.42
2022-10-05T19:22:58.272Z,73.45
2022-10-05T19:25:48.813Z,73.26
2022-10-05T19:28:20.811Z,73.11
2022-10-05T19:31:15.835Z,71.01
2022-10-05T19:34:05.527Z,71.34
2022-10-05T19:36:59.932Z,70.66
2022-10-05T19:39:56.559Z,70.57
2022-10-05T19:42:47.402Z,70.93
2022-10-05T19:45:24.320Z,71.48
2022-10-05T19:47:55.890Z,71.88
2022-10-05T19:50:30.528Z,70.50
2022-10-05T19:53:08.290Z,71.73
2022-10-05T19:55:40.863Z,72.73
2022-10-05T19:58:23.655Z,72.92
2022-10-05T20:01:03.448Z,73.96
2022-10-05T20:03:34.171Z,74.80
2022-10-05T20:06:05.466Z,74.70
2022-10-05T20:08:46.231Z,74.16
2022-10-05T20:11:15.844Z,74.84
2022-10-05T20:13:47.744Z,74.10
2022-10-05T20:16:37.604Z,75.56
2022-10-05T20:19:52.283Z,75.91
2022-10-05T20:22:36.370Z,75.51
2022-10-05T20:25:32.543Z,75.73
2022-10-05T20:28:04.451Z,76.02
2022-10-05T20:30:35.300Z,75.76
2022-10-05T20:33:10.286Z,76.25
2022-10-05T20:35:38.771Z,74.81
2022-10-05T20:38:07.401Z,76.05
2022-10-05T20:40:36.515Z,75.40
2022-10-05T20:43:05.053Z,75.43
2022-10-05T20:45:33.660Z,75.24
2022-10-05T20:48:02.675Z,76.57
2022-10-05T20:50:33.462Z,76.43
2022-10-05T20:53:01.913Z,76.69
2022-10-05T20:55:32.491Z,76.62
2022-10-05T20:58:01.351Z,76.35
2022-10-05T21:00:49.746Z,77.55
2022-10-05T21:03:20.676Z,76.79
2022-10-05T21:05:49.174Z,76.21
2022-10-05T21:08:19.089Z,76.65
2022-10-05T21:10:47.602Z,78.14
2022-10-05T21:13:16.032Z,78.84
2022-10-05T21:15:45.129Z,79.68
2022-10-05T21:18:13.670Z,79.32
2022-10-05T21:20:41.798Z,79.54
2022-10-05T21:23:10.381Z,79.73
2022-10-05T21:25:39.175Z,80.10
2022-10-05T21:28:07.537Z,80.52
2022-10-05T21:30:36.028Z,79.87
2022-10-05T21:33:04.670Z,80.43
2022-10-05T21:35:32.792Z,81.20
2022-10-05T21:38:01.270Z,81.50
2022-10-05T21:40:29.723Z,81.83
2022-10-05T21:42:59.006Z,82.03
2022-10-05T21:45:29.802Z,82.01
2022-10-05T21:47:59.249Z,81.59
2022-10-05T21:50:27.973Z,81.23
2022-10-05T21:52:56.385Z,80.75
2022-10-05T21:55:24.863Z,80.81
2022-10-05T21:57:53.593Z,81.77
2022-10-05T22:00:22.405Z,84.47
2022-10-05T22:02:50.994Z,86.74
2022-10-05T22:05:19.450Z,87.26
2022-10-05T22:07:48.036Z,87.42
2022-10-05T22:10:16.604Z,88.20
2022-10-05T22:12:47.660Z,87.76
2022-10-05T22:15:16.712Z,86.78
2022-10-05T22:17:47.254Z,87.38
2022-10-05T22:20:16.802Z,88.93
2022-10-05T22:22:45.236Z,86.35
2022-10-05T22:25:13.717Z,86.48
2022-10-05T22:27:42.460Z,86.71
2022-10-05T22:30:11.487Z,87.66
2022-10-05T22:32:40.001Z,85.98
2022-10-05T22:35:11.483Z,86.02
2022-10-05T22:37:40.346Z,85.81
2022-10-05T22:40:10.257Z,85.74
2022-10-05T22:42:40.421Z,85.80
2022-10-05T22:45:10.317Z,85.54
2022-10-05T22:47:38.856Z,85.40
2022-10-05T22:50:07.836Z,84.86
2022-10-05T22:52:36.474Z,84.65
2022-10-05T22:55:05.225Z,84.61
2022-10-05T22:57:43.683Z,84.47
2022-10-05T23:00:13.720Z,84.61
2022-10-05T23:02:44.596Z,84.46
2022-10-05T23:05:18.336Z,84.53
2022-10-05T23:07:50.645Z,84.52
2022-10-05T23:10:20.481Z,84.17
2022-10-05T23:13:00.715Z,83.77
2022-10-05T23:15:29.477Z,84.33
2022-10-05T23:17:58.812Z,83.80
2022-10-05T23:20:27.488Z,83.71
2022-10-05T23:22:56.060Z,83.96
2022-10-05T23:25:24.672Z,83.15
2022-10-05T23:27:53.342Z,82.61
2022-10-05T23:30:21.752Z,82.73
2022-10-05T23:32:50.273Z,82.59
2022-10-05T23:35:18.771Z,83.04
2022-10-05T23:37:47.265Z,82.82
2022-10-05T23:40:16.055Z,82.77
2022-10-05T23:42:44.616Z,83.24
2022-10-05T23:45:14.243Z,83.25
2022-10-05T23:47:42.941Z,83.38
2022-10-05T23:50:11.517Z,82.73
2022-10-05T23:52:39.989Z,83.95
2022-10-05T23:55:08.989Z,83.94
2022-10-05T23:57:37.465Z,84.74
